sensor_id;sensor_type;location;lat;lon;timestamp;P1;durP1;ratioP1;P2;durP2;ratioP2
67737;SDS011;54534;43.612;1.572;2023-04-15T00:02:00;8.57;;;2.90;;
67737;SDS011;54534;43.612;1.572;2023-04-15T00:04:26;8.13;;;2.50;;
67737;SDS011;54534;43.612;1.572;2023-04-15T00:06:52;4.07;;;1.97;;
67737;SDS011;54534;43.612;1.572;2023-04-15T00:09:19;5.97;;;2.77;;
67737;SDS011;54534;43.612;1.572;2023-04-15T00:11:45;7.67;;;2.30;;
67737;SDS011;54534;43.612;1.572;2023-04-15T00:14:13;9.10;;;2.43;;
67737;SDS011;54534;43.612;1.572;2023-04-15T00:16:39;6.18;;;2.40;;
67737;SDS011;54534;43.612;1.572;2023-04-15T00:19:05;7.20;;;2.60;;
67737;SDS011;54534;43.612;1.572;2023-04-15T00:21:30;8.93;;;3.70;;
67737;SDS011;54534;43.612;1.572;2023-04-15T00:23:56;9.00;;;2.87;;
67737;SDS011;54534;43.612;1.572;2023-04-15T00:26:21;6.50;;;2.53;;
67737;SDS011;54534;43.612;1.572;2023-04-15T00:28:47;5.83;;;2.10;;
67737;SDS011;54534;43.612;1.572;2023-04-15T00:31:12;9.67;;;2.90;;
67737;SDS011;54534;43.612;1.572;2023-04-15T00:33:38;7.03;;;2.33;;
67737;SDS011;54534;43.612;1.572;2023-04-15T00:36:05;5.67;;;2.43;;
67737;SDS011;54534;43.612;1.572;2023-04-15T00:38:31;6.67;;;2.57;;
67737;SDS011;54534;43.612;1.572;2023-04-15T00:40:57;7.57;;;2.60;;
67737;SDS011;54534;43.612;1.572;2023-04-15T00:43:23;6.90;;;2.30;;
67737;SDS011;54534;43.612;1.572;2023-04-15T00:45:50;8.03;;;2.23;;
67737;SDS011;54534;43.612;1.572;2023-04-15T00:48:17;7.20;;;2.60;;
67737;SDS011;54534;43.612;1.572;2023-04-15T00:50:43;11.03;;;2.50;;
67737;SDS011;54534;43.612;1.572;2023-04-15T00:53:08;7.20;;;2.20;;
67737;SDS011;54534;43.612;1.572;2023-04-15T00:55:33;7.10;;;2.83;;
67737;SDS011;54534;43.612;1.572;2023-04-15T00:58:00;8.50;;;2.30;;
67737;SDS011;54534;43.612;1.572;2023-04-15T01:00:25;8.73;;;2.47;;
67737;SDS011;54534;43.612;1.572;2023-04-15T01:02:51;11.07;;;2.90;;
67737;SDS011;54534;43.612;1.572;2023-04-15T01:05:16;8.77;;;2.33;;
67737;SDS011;54534;43.612;1.572;2023-04-15T01:07:43;7.80;;;2.73;;
67737;SDS011;54534;43.612;1.572;2023-04-15T01:10:08;10.33;;;2.93;;
67737;SDS011;54534;43.612;1.572;2023-04-15T01:12:34;11.83;;;3.10;;
67737;SDS011;54534;43.612;1.572;2023-04-15T01:15:01;8.77;;;2.97;;
67737;SDS011;54534;43.612;1.572;2023-04-15T01:17:27;8.80;;;2.83;;
67737;SDS011;54534;43.612;1.572;2023-04-15T01:19:53;7.60;;;2.30;;
67737;SDS011;54534;43.612;1.572;2023-04-15T01:22:20;8.23;;;2.40;;
67737;SDS011;54534;43.612;1.572;2023-04-15T01:24:48;7.43;;;2.27;;
67737;SDS011;54534;43.612;1.572;2023-04-15T01:27:20;6.43;;;2.40;;
67737;SDS011;54534;43.612;1.572;2023-04-15T01:29:45;7.33;;;2.57;;
67737;SDS011;54534;43.612;1.572;2023-04-15T01:32:11;6.87;;;3.20;;
67737;SDS011;54534;43.612;1.572;2023-04-15T01:34:36;5.60;;;2.23;;
67737;SDS011;54534;43.612;1.572;2023-04-15T01:37:02;7.10;;;2.20;;
67737;SDS011;54534;43.612;1.572;2023-04-15T01:39:27;7.30;;;2.50;;
67737;SDS011;54534;43.612;1.572;2023-04-15T01:41:53;7.37;;;2.47;;
67737;SDS011;54534;43.612;1.572;2023-04-15T01:44:18;6.87;;;2.20;;
67737;SDS011;54534;43.612;1.572;2023-04-15T01:46:43;6.73;;;2.93;;
67737;SDS011;54534;43.612;1.572;2023-04-15T01:49:09;8.87;;;2.30;;
67737;SDS011;54534;43.612;1.572;2023-04-15T01:51:34;5.90;;;2.53;;
67737;SDS011;54534;43.612;1.572;2023-04-15T01:54:00;6.40;;;2.57;;
67737;SDS011;54534;43.612;1.572;2023-04-15T01:56:25;9.77;;;2.77;;
67737;SDS011;54534;43.612;1.572;2023-04-15T01:58:51;7.30;;;2.33;;
67737;SDS011;54534;43.612;1.572;2023-04-15T02:01:16;5.27;;;1.80;;
67737;SDS011;54534;43.612;1.572;2023-04-15T02:03:43;10.37;;;3.03;;
67737;SDS011;54534;43.612;1.572;2023-04-15T02:06:09;8.33;;;2.20;;
67737;SDS011;54534;43.612;1.572;2023-04-15T02:08:35;7.90;;;1.97;;
67737;SDS011;54534;43.612;1.572;2023-04-15T02:11:00;5.63;;;2.20;;
67737;SDS011;54534;43.612;1.572;2023-04-15T02:13:26;9.87;;;2.67;;
67737;SDS011;54534;43.612;1.572;2023-04-15T02:15:53;6.43;;;2.37;;
67737;SDS011;54534;43.612;1.572;2023-04-15T02:18:19;7.00;;;2.20;;
67737;SDS011;54534;43.612;1.572;2023-04-15T02:20:45;6.23;;;2.43;;
67737;SDS011;54534;43.612;1.572;2023-04-15T02:23:11;6.50;;;2.20;;
67737;SDS011;54534;43.612;1.572;2023-04-15T02:25:37;17.27;;;2.67;;
67737;SDS011;54534;43.612;1.572;2023-04-15T02:28:05;9.40;;;2.20;;
67737;SDS011;54534;43.612;1.572;2023-04-15T02:30:31;5.10;;;1.80;;
67737;SDS011;54534;43.612;1.572;2023-04-15T02:32:57;7.97;;;2.07;;
67737;SDS011;54534;43.612;1.572;2023-04-15T02:35:22;7.50;;;2.37;;
67737;SDS011;54534;43.612;1.572;2023-04-15T02:37:49;3.43;;;2.00;;
67737;SDS011;54534;43.612;1.572;2023-04-15T02:40:15;6.80;;;2.50;;
67737;SDS011;54534;43.612;1.572;2023-04-15T02:42:41;5.33;;;1.80;;
67737;SDS011;54534;43.612;1.572;2023-04-15T02:45:08;5.23;;;2.00;;
67737;SDS011;54534;43.612;1.572;2023-04-15T02:47:36;4.37;;;1.67;;
67737;SDS011;54534;43.612;1.572;2023-04-15T02:50:04;6.83;;;1.97;;
67737;SDS011;54534;43.612;1.572;2023-04-15T02:52:29;5.23;;;2.23;;
67737;SDS011;54534;43.612;1.572;2023-04-15T02:54:55;5.03;;;1.93;;
67737;SDS011;54534;43.612;1.572;2023-04-15T02:57:25;4.38;;;1.55;;
67737;SDS011;54534;43.612;1.572;2023-04-15T02:59:51;6.77;;;2.03;;
67737;SDS011;54534;43.612;1.572;2023-04-15T03:02:17;5.90;;;2.17;;
67737;SDS011;54534;43.612;1.572;2023-04-15T03:04:42;6.87;;;2.33;;
67737;SDS011;54534;43.612;1.572;2023-04-15T03:07:07;5.77;;;2.00;;
67737;SDS011;54534;43.612;1.572;2023-04-15T03:09:33;6.93;;;1.77;;
67737;SDS011;54534;43.612;1.572;2023-04-15T03:11:59;6.63;;;2.00;;
67737;SDS011;54534;43.612;1.572;2023-04-15T03:14:24;7.00;;;3.03;;
67737;SDS011;54534;43.612;1.572;2023-04-15T03:16:50;6.57;;;2.43;;
67737;SDS011;54534;43.612;1.572;2023-04-15T03:19:16;3.83;;;1.53;;
67737;SDS011;54534;43.612;1.572;2023-04-15T03:21:41;5.90;;;1.83;;
67737;SDS011;54534;43.612;1.572;2023-04-15T03:24:06;6.33;;;2.23;;
67737;SDS011;54534;43.612;1.572;2023-04-15T03:26:32;6.87;;;2.17;;
67737;SDS011;54534;43.612;1.572;2023-04-15T03:28:57;6.50;;;2.17;;
67737;SDS011;54534;43.612;1.572;2023-04-15T03:31:23;5.50;;;2.13;;
67737;SDS011;54534;43.612;1.572;2023-04-15T03:33:48;6.90;;;2.00;;
67737;SDS011;54534;43.612;1.572;2023-04-15T03:36:14;5.67;;;1.80;;
67737;SDS011;54534;43.612;1.572;2023-04-15T03:38:40;6.33;;;1.90;;
67737;SDS011;54534;43.612;1.572;2023-04-15T03:41:06;4.87;;;1.87;;
67737;SDS011;54534;43.612;1.572;2023-04-15T03:43:31;4.67;;;1.50;;
67737;SDS011;54534;43.612;1.572;2023-04-15T03:45:57;5.10;;;2.03;;
67737;SDS011;54534;43.612;1.572;2023-04-15T03:48:22;5.53;;;1.87;;
67737;SDS011;54534;43.612;1.572;2023-04-15T03:50:48;4.80;;;2.23;;
67737;SDS011;54534;43.612;1.572;2023-04-15T03:53:13;3.97;;;1.43;;
67737;SDS011;54534;43.612;1.572;2023-04-15T03:55:39;5.03;;;1.47;;
67737;SDS011;54534;43.612;1.572;2023-04-15T03:58:04;5.53;;;1.50;;
67737;SDS011;54534;43.612;1.572;2023-04-15T04:00:30;5.80;;;2.03;;
67737;SDS011;54534;43.612;1.572;2023-04-15T04:02:55;4.83;;;1.63;;
67737;SDS011;54534;43.612;1.572;2023-04-15T04:05:21;3.23;;;1.40;;
67737;SDS011;54534;43.612;1.572;2023-04-15T04:07:47;5.60;;;1.70;;
67737;SDS011;54534;43.612;1.572;2023-04-15T04:10:12;3.83;;;1.43;;
67737;SDS011;54534;43.612;1.572;2023-04-15T04:12:38;6.03;;;1.73;;
67737;SDS011;54534;43.612;1.572;2023-04-15T04:15:03;4.77;;;1.73;;
67737;SDS011;54534;43.612;1.572;2023-04-15T04:17:29;3.30;;;1.30;;
67737;SDS011;54534;43.612;1.572;2023-04-15T04:19:55;3.23;;;1.53;;
67737;SDS011;54534;43.612;1.572;2023-04-15T04:22:23;2.80;;;1.43;;
67737;SDS011;54534;43.612;1.572;2023-04-15T04:24:49;3.97;;;1.25;;
67737;SDS011;54534;43.612;1.572;2023-04-15T04:27:14;4.67;;;1.60;;
67737;SDS011;54534;43.612;1.572;2023-04-15T04:29:40;3.17;;;1.43;;
67737;SDS011;54534;43.612;1.572;2023-04-15T04:32:05;4.23;;;1.40;;
67737;SDS011;54534;43.612;1.572;2023-04-15T04:34:31;7.30;;;3.13;;
67737;SDS011;54534;43.612;1.572;2023-04-15T04:36:56;3.93;;;1.20;;
67737;SDS011;54534;43.612;1.572;2023-04-15T04:39:22;3.63;;;1.33;;
67737;SDS011;54534;43.612;1.572;2023-04-15T04:41:47;4.27;;;1.37;;
67737;SDS011;54534;43.612;1.572;2023-04-15T04:44:13;4.40;;;1.47;;
67737;SDS011;54534;43.612;1.572;2023-04-15T04:46:38;5.37;;;1.80;;
67737;SDS011;54534;43.612;1.572;2023-04-15T04:49:04;5.77;;;1.77;;
67737;SDS011;54534;43.612;1.572;2023-04-15T04:51:29;4.27;;;1.97;;
67737;SDS011;54534;43.612;1.572;2023-04-15T04:53:56;5.00;;;1.30;;
67737;SDS011;54534;43.612;1.572;2023-04-15T04:56:21;3.83;;;1.27;;
67737;SDS011;54534;43.612;1.572;2023-04-15T04:58:47;3.83;;;1.50;;
67737;SDS011;54534;43.612;1.572;2023-04-15T05:01:12;5.50;;;1.37;;
67737;SDS011;54534;43.612;1.572;2023-04-15T05:03:38;3.03;;;1.30;;
67737;SDS011;54534;43.612;1.572;2023-04-15T05:06:03;5.70;;;1.97;;
67737;SDS011;54534;43.612;1.572;2023-04-15T05:08:31;5.83;;;1.70;;
67737;SDS011;54534;43.612;1.572;2023-04-15T05:10:57;5.30;;;2.00;;
67737;SDS011;54534;43.612;1.572;2023-04-15T05:13:22;4.37;;;1.33;;
67737;SDS011;54534;43.612;1.572;2023-04-15T05:15:47;5.40;;;1.67;;
67737;SDS011;54534;43.612;1.572;2023-04-15T05:18:13;5.73;;;1.63;;
67737;SDS011;54534;43.612;1.572;2023-04-15T05:20:38;3.70;;;1.33;;
67737;SDS011;54534;43.612;1.572;2023-04-15T05:23:04;4.40;;;1.50;;
67737;SDS011;54534;43.612;1.572;2023-04-15T05:25:30;4.30;;;1.57;;
67737;SDS011;54534;43.612;1.572;2023-04-15T05:27:55;4.60;;;1.60;;
67737;SDS011;54534;43.612;1.572;2023-04-15T05:30:21;2.87;;;1.27;;
67737;SDS011;54534;43.612;1.572;2023-04-15T05:32:46;2.93;;;1.20;;
67737;SDS011;54534;43.612;1.572;2023-04-15T05:35:12;3.70;;;1.30;;
67737;SDS011;54534;43.612;1.572;2023-04-15T05:37:37;2.87;;;1.20;;
67737;SDS011;54534;43.612;1.572;2023-04-15T05:40:02;3.43;;;1.47;;
67737;SDS011;54534;43.612;1.572;2023-04-15T05:42:28;3.30;;;1.30;;
67737;SDS011;54534;43.612;1.572;2023-04-15T05:44:54;4.43;;;1.43;;
67737;SDS011;54534;43.612;1.572;2023-04-15T05:47:20;4.03;;;1.37;;
67737;SDS011;54534;43.612;1.572;2023-04-15T05:49:45;4.37;;;1.50;;
67737;SDS011;54534;43.612;1.572;2023-04-15T05:52:11;5.77;;;1.47;;
67737;SDS011;54534;43.612;1.572;2023-04-15T05:54:36;4.97;;;1.70;;
67737;SDS011;54534;43.612;1.572;2023-04-15T05:57:01;4.57;;;1.73;;
67737;SDS011;54534;43.612;1.572;2023-04-15T05:59:28;3.67;;;1.40;;
67737;SDS011;54534;43.612;1.572;2023-04-15T06:01:53;4.03;;;1.43;;
67737;SDS011;54534;43.612;1.572;2023-04-15T06:04:19;4.87;;;1.67;;
67737;SDS011;54534;43.612;1.572;2023-04-15T06:06:44;1.80;;;1.03;;
67737;SDS011;54534;43.612;1.572;2023-04-15T06:09:10;4.07;;;1.40;;
67737;SDS011;54534;43.612;1.572;2023-04-15T06:11:35;3.97;;;1.37;;
67737;SDS011;54534;43.612;1.572;2023-04-15T06:14:01;3.23;;;1.20;;
67737;SDS011;54534;43.612;1.572;2023-04-15T06:16:26;7.73;;;1.47;;
67737;SDS011;54534;43.612;1.572;2023-04-15T06:18:51;12.80;;;1.40;;
67737;SDS011;54534;43.612;1.572;2023-04-15T06:21:17;7.50;;;1.50;;
67737;SDS011;54534;43.612;1.572;2023-04-15T06:23:43;4.87;;;1.30;;
67737;SDS011;54534;43.612;1.572;2023-04-15T06:26:08;5.93;;;1.20;;
67737;SDS011;54534;43.612;1.572;2023-04-15T06:28:34;4.23;;;1.60;;
67737;SDS011;54534;43.612;1.572;2023-04-15T06:30:59;5.80;;;1.73;;
67737;SDS011;54534;43.612;1.572;2023-04-15T06:33:25;7.10;;;1.50;;
67737;SDS011;54534;43.612;1.572;2023-04-15T06:35:51;7.23;;;1.60;;
67737;SDS011;54534;43.612;1.572;2023-04-15T06:38:17;6.10;;;1.60;;
67737;SDS011;54534;43.612;1.572;2023-04-15T06:40:42;6.00;;;1.20;;
67737;SDS011;54534;43.612;1.572;2023-04-15T06:43:08;7.80;;;1.93;;
67737;SDS011;54534;43.612;1.572;2023-04-15T06:45:33;7.90;;;1.83;;
67737;SDS011;54534;43.612;1.572;2023-04-15T06:47:59;5.83;;;1.43;;
67737;SDS011;54534;43.612;1.572;2023-04-15T06:50:24;7.60;;;1.10;;
67737;SDS011;54534;43.612;1.572;2023-04-15T06:52:50;9.90;;;1.23;;
67737;SDS011;54534;43.612;1.572;2023-04-15T06:55:15;3.20;;;1.00;;
67737;SDS011;54534;43.612;1.572;2023-04-15T06:57:41;5.77;;;1.40;;
67737;SDS011;54534;43.612;1.572;2023-04-15T07:00:06;5.00;;;1.27;;
67737;SDS011;54534;43.612;1.572;2023-04-15T07:02:32;5.80;;;1.17;;
67737;SDS011;54534;43.612;1.572;2023-04-15T07:04:58;4.93;;;1.30;;
67737;SDS011;54534;43.612;1.572;2023-04-15T07:07:23;5.97;;;1.70;;
67737;SDS011;54534;43.612;1.572;2023-04-15T07:09:49;6.90;;;1.43;;
67737;SDS011;54534;43.612;1.572;2023-04-15T07:12:16;4.60;;;1.13;;
67737;SDS011;54534;43.612;1.572;2023-04-15T07:14:41;3.93;;;1.00;;
67737;SDS011;54534;43.612;1.572;2023-04-15T07:17:07;15.00;;;1.30;;
67737;SDS011;54534;43.612;1.572;2023-04-15T07:19:33;6.70;;;1.30;;
67737;SDS011;54534;43.612;1.572;2023-04-15T07:21:59;3.80;;;1.10;;
67737;SDS011;54534;43.612;1.572;2023-04-15T07:24:24;42.23;;;2.73;;
67737;SDS011;54534;43.612;1.572;2023-04-15T07:26:50;22.93;;;2.50;;
67737;SDS011;54534;43.612;1.572;2023-04-15T07:29:17;17.80;;;2.17;;
67737;SDS011;54534;43.612;1.572;2023-04-15T07:31:42;15.13;;;1.60;;
67737;SDS011;54534;43.612;1.572;2023-04-15T07:34:08;12.13;;;1.37;;
67737;SDS011;54534;43.612;1.572;2023-04-15T07:36:33;20.23;;;1.80;;
67737;SDS011;54534;43.612;1.572;2023-04-15T07:38:59;7.87;;;1.37;;
67737;SDS011;54534;43.612;1.572;2023-04-15T07:41:27;9.87;;;1.43;;
67737;SDS011;54534;43.612;1.572;2023-04-15T07:43:53;14.43;;;1.60;;
67737;SDS011;54534;43.612;1.572;2023-04-15T07:46:19;15.43;;;2.10;;
67737;SDS011;54534;43.612;1.572;2023-04-15T07:48:44;11.17;;;1.80;;
67737;SDS011;54534;43.612;1.572;2023-04-15T07:51:10;11.23;;;1.77;;
67737;SDS011;54534;43.612;1.572;2023-04-15T07:53:36;13.33;;;2.27;;
67737;SDS011;54534;43.612;1.572;2023-04-15T07:56:02;15.47;;;1.90;;
67737;SDS011;54534;43.612;1.572;2023-04-15T07:58:28;13.90;;;2.03;;
67737;SDS011;54534;43.612;1.572;2023-04-15T08:00:53;11.17;;;1.53;;
67737;SDS011;54534;43.612;1.572;2023-04-15T08:03:20;13.43;;;2.00;;
67737;SDS011;54534;43.612;1.572;2023-04-15T08:05:46;20.67;;;1.70;;
67737;SDS011;54534;43.612;1.572;2023-04-15T08:08:11;33.10;;;2.83;;
67737;SDS011;54534;43.612;1.572;2023-04-15T08:10:37;17.13;;;2.17;;
67737;SDS011;54534;43.612;1.572;2023-04-15T08:13:02;16.73;;;1.53;;
67737;SDS011;54534;43.612;1.572;2023-04-15T08:15:28;6.00;;;1.60;;
67737;SDS011;54534;43.612;1.572;2023-04-15T08:17:53;14.20;;;1.97;;
67737;SDS011;54534;43.612;1.572;2023-04-15T08:20:19;23.47;;;2.17;;
67737;SDS011;54534;43.612;1.572;2023-04-15T08:22:44;19.43;;;2.53;;
67737;SDS011;54534;43.612;1.572;2023-04-15T08:25:11;19.70;;;1.87;;
67737;SDS011;54534;43.612;1.572;2023-04-15T08:27:37;23.07;;;4.40;;
67737;SDS011;54534;43.612;1.572;2023-04-15T08:30:02;15.37;;;2.57;;
67737;SDS011;54534;43.612;1.572;2023-04-15T08:32:28;19.87;;;2.10;;
67737;SDS011;54534;43.612;1.572;2023-04-15T08:34:54;17.20;;;2.80;;
67737;SDS011;54534;43.612;1.572;2023-04-15T08:37:19;13.97;;;2.03;;
67737;SDS011;54534;43.612;1.572;2023-04-15T08:39:45;20.40;;;3.00;;
67737;SDS011;54534;43.612;1.572;2023-04-15T08:42:11;17.87;;;2.53;;
67737;SDS011;54534;43.612;1.572;2023-04-15T08:44:41;13.90;;;2.07;;
67737;SDS011;54534;43.612;1.572;2023-04-15T08:47:08;13.50;;;2.07;;
67737;SDS011;54534;43.612;1.572;2023-04-15T08:49:38;16.57;;;2.13;;
67737;SDS011;54534;43.612;1.572;2023-04-15T08:52:05;19.97;;;3.07;;
67737;SDS011;54534;43.612;1.572;2023-04-15T08:54:31;21.77;;;2.50;;
67737;SDS011;54534;43.612;1.572;2023-04-15T08:56:58;14.77;;;1.70;;
67737;SDS011;54534;43.612;1.572;2023-04-15T08:59:23;23.30;;;2.83;;
67737;SDS011;54534;43.612;1.572;2023-04-15T09:01:49;25.67;;;2.93;;
67737;SDS011;54534;43.612;1.572;2023-04-15T09:04:16;20.37;;;2.07;;
67737;SDS011;54534;43.612;1.572;2023-04-15T09:06:41;14.57;;;2.10;;
67737;SDS011;54534;43.612;1.572;2023-04-15T09:09:07;19.37;;;2.60;;
67737;SDS011;54534;43.612;1.572;2023-04-15T09:11:32;23.23;;;2.97;;
67737;SDS011;54534;43.612;1.572;2023-04-15T09:13:58;23.37;;;2.70;;
67737;SDS011;54534;43.612;1.572;2023-04-15T09:16:24;21.77;;;3.57;;
67737;SDS011;54534;43.612;1.572;2023-04-15T09:18:50;19.80;;;2.57;;
67737;SDS011;54534;43.612;1.572;2023-04-15T09:21:16;20.83;;;3.20;;
67737;SDS011;54534;43.612;1.572;2023-04-15T09:23:58;17.20;;;2.47;;
67737;SDS011;54534;43.612;1.572;2023-04-15T09:26:32;14.70;;;2.03;;
67737;SDS011;54534;43.612;1.572;2023-04-15T09:29:02;24.13;;;2.73;;
67737;SDS011;54534;43.612;1.572;2023-04-15T09:31:33;17.37;;;3.63;;
67737;SDS011;54534;43.612;1.572;2023-04-15T09:33:59;17.77;;;2.60;;
67737;SDS011;54534;43.612;1.572;2023-04-15T09:36:25;12.87;;;2.73;;
67737;SDS011;54534;43.612;1.572;2023-04-15T09:38:57;26.73;;;2.90;;
67737;SDS011;54534;43.612;1.572;2023-04-15T09:41:24;21.67;;;2.50;;
67737;SDS011;54534;43.612;1.572;2023-04-15T09:43:52;24.93;;;3.43;;
67737;SDS011;54534;43.612;1.572;2023-04-15T09:46:17;26.93;;;3.63;;
67737;SDS011;54534;43.612;1.572;2023-04-15T09:48:43;21.40;;;3.77;;
67737;SDS011;54534;43.612;1.572;2023-04-15T09:51:09;26.43;;;2.67;;
67737;SDS011;54534;43.612;1.572;2023-04-15T09:53:35;22.33;;;3.83;;
67737;SDS011;54534;43.612;1.572;2023-04-15T09:56:02;25.23;;;2.90;;
67737;SDS011;54534;43.612;1.572;2023-04-15T09:58:29;22.83;;;3.50;;
67737;SDS011;54534;43.612;1.572;2023-04-15T10:00:56;20.70;;;3.33;;
67737;SDS011;54534;43.612;1.572;2023-04-15T10:03:24;26.37;;;3.43;;
67737;SDS011;54534;43.612;1.572;2023-04-15T10:05:52;26.00;;;3.10;;
67737;SDS011;54534;43.612;1.572;2023-04-15T10:08:20;20.43;;;3.40;;
67737;SDS011;54534;43.612;1.572;2023-04-15T10:10:47;24.27;;;3.23;;
67737;SDS011;54534;43.612;1.572;2023-04-15T10:13:13;21.93;;;3.20;;
67737;SDS011;54534;43.612;1.572;2023-04-15T10:15:43;31.73;;;4.87;;
67737;SDS011;54534;43.612;1.572;2023-04-15T10:18:12;28.58;;;2.85;;
67737;SDS011;54534;43.612;1.572;2023-04-15T10:20:41;17.43;;;4.00;;
67737;SDS011;54534;43.612;1.572;2023-04-15T10:23:08;24.23;;;4.00;;
67737;SDS011;54534;43.612;1.572;2023-04-15T10:25:33;23.13;;;4.20;;
67737;SDS011;54534;43.612;1.572;2023-04-15T10:28:00;28.37;;;3.57;;
67737;SDS011;54534;43.612;1.572;2023-04-15T10:30:27;22.27;;;3.40;;
67737;SDS011;54534;43.612;1.572;2023-04-15T10:32:52;33.33;;;6.60;;
67737;SDS011;54534;43.612;1.572;2023-04-15T10:35:19;33.13;;;4.33;;
67737;SDS011;54534;43.612;1.572;2023-04-15T10:37:46;21.83;;;2.87;;
67737;SDS011;54534;43.612;1.572;2023-04-15T10:40:32;14.67;;;3.00;;
67737;SDS011;54534;43.612;1.572;2023-04-15T10:42:58;26.53;;;3.63;;
67737;SDS011;54534;43.612;1.572;2023-04-15T10:47:56;46.93;;;4.90;;
67737;SDS011;54534;43.612;1.572;2023-04-15T10:50:25;39.28;;;4.43;;
67737;SDS011;54534;43.612;1.572;2023-04-15T10:52:52;46.03;;;4.97;;
67737;SDS011;54534;43.612;1.572;2023-04-15T10:55:24;47.67;;;4.67;;
67737;SDS011;54534;43.612;1.572;2023-04-15T10:57:57;45.07;;;4.43;;
67737;SDS011;54534;43.612;1.572;2023-04-15T11:00:25;52.80;;;8.10;;
67737;SDS011;54534;43.612;1.572;2023-04-15T11:05:19;83.40;;;18.33;;
67737;SDS011;54534;43.612;1.572;2023-04-15T11:07:47;69.27;;;17.43;;
67737;SDS011;54534;43.612;1.572;2023-04-15T11:12:51;83.47;;;17.07;;
67737;SDS011;54534;43.612;1.572;2023-04-15T11:15:49;70.50;;;16.83;;
67737;SDS011;54534;43.612;1.572;2023-04-15T11:18:12;61.20;;;14.90;;
67737;SDS011;54534;43.612;1.572;2023-04-15T11:20:41;72.83;;;15.73;;
67737;SDS011;54534;43.612;1.572;2023-04-15T11:23:09;63.03;;;12.53;;
67737;SDS011;54534;43.612;1.572;2023-04-15T11:25:34;61.60;;;11.80;;
67737;SDS011;54534;43.612;1.572;2023-04-15T11:28:03;46.00;;;9.37;;
67737;SDS011;54534;43.612;1.572;2023-04-15T11:30:30;51.87;;;10.17;;
67737;SDS011;54534;43.612;1.572;2023-04-15T11:32:58;43.67;;;9.83;;
67737;SDS011;54534;43.612;1.572;2023-04-15T11:35:25;53.00;;;12.40;;
67737;SDS011;54534;43.612;1.572;2023-04-15T11:37:51;36.03;;;8.67;;
67737;SDS011;54534;43.612;1.572;2023-04-15T11:40:21;43.53;;;8.80;;
67737;SDS011;54534;43.612;1.572;2023-04-15T11:43:07;37.23;;;9.00;;
67737;SDS011;54534;43.612;1.572;2023-04-15T11:45:37;38.13;;;9.97;;
67737;SDS011;54534;43.612;1.572;2023-04-15T11:48:12;38.03;;;7.87;;
67737;SDS011;54534;43.612;1.572;2023-04-15T11:50:38;35.07;;;9.07;;
67737;SDS011;54534;43.612;1.572;2023-04-15T11:53:05;30.00;;;7.60;;
67737;SDS011;54534;43.612;1.572;2023-04-15T11:55:48;37.23;;;8.07;;
67737;SDS011;54534;43.612;1.572;2023-04-15T11:58:19;24.50;;;6.47;;
67737;SDS011;54534;43.612;1.572;2023-04-15T12:00:50;32.10;;;8.73;;
67737;SDS011;54534;43.612;1.572;2023-04-15T12:06:08;32.17;;;7.75;;
67737;SDS011;54534;43.612;1.572;2023-04-15T12:16:47;33.57;;;6.20;;
67737;SDS011;54534;43.612;1.572;2023-04-15T12:19:14;26.90;;;5.63;;
67737;SDS011;54534;43.612;1.572;2023-04-15T12:21:43;26.17;;;6.50;;
67737;SDS011;54534;43.612;1.572;2023-04-15T12:24:10;28.30;;;5.53;;
67737;SDS011;54534;43.612;1.572;2023-04-15T12:26:40;23.73;;;5.43;;
67737;SDS011;54534;43.612;1.572;2023-04-15T12:29:12;28.63;;;5.70;;
67737;SDS011;54534;43.612;1.572;2023-04-15T12:31:46;25.10;;;5.00;;
67737;SDS011;54534;43.612;1.572;2023-04-15T12:34:12;22.43;;;5.37;;
67737;SDS011;54534;43.612;1.572;2023-04-15T12:36:38;21.80;;;5.33;;
67737;SDS011;54534;43.612;1.572;2023-04-15T12:39:04;16.73;;;4.30;;
67737;SDS011;54534;43.612;1.572;2023-04-15T12:41:30;19.17;;;4.33;;
67737;SDS011;54534;43.612;1.572;2023-04-15T12:43:56;22.37;;;4.70;;
67737;SDS011;54534;43.612;1.572;2023-04-15T12:46:21;18.27;;;5.47;;
67737;SDS011;54534;43.612;1.572;2023-04-15T12:48:47;18.23;;;4.33;;
67737;SDS011;54534;43.612;1.572;2023-04-15T12:51:13;19.97;;;4.17;;
67737;SDS011;54534;43.612;1.572;2023-04-15T12:53:38;15.53;;;4.07;;
67737;SDS011;54534;43.612;1.572;2023-04-15T12:56:04;21.17;;;4.17;;
67737;SDS011;54534;43.612;1.572;2023-04-15T12:58:30;16.67;;;4.37;;
67737;SDS011;54534;43.612;1.572;2023-04-15T13:00:56;17.97;;;3.97;;
67737;SDS011;54534;43.612;1.572;2023-04-15T13:03:21;17.03;;;4.37;;
67737;SDS011;54534;43.612;1.572;2023-04-15T13:05:47;20.47;;;3.57;;
67737;SDS011;54534;43.612;1.572;2023-04-15T13:08:12;17.63;;;4.33;;
67737;SDS011;54534;43.612;1.572;2023-04-15T13:10:38;14.30;;;3.70;;
67737;SDS011;54534;43.612;1.572;2023-04-15T13:13:03;14.93;;;3.63;;
67737;SDS011;54534;43.612;1.572;2023-04-15T13:15:29;11.40;;;2.67;;
67737;SDS011;54534;43.612;1.572;2023-04-15T13:17:55;13.27;;;3.10;;
67737;SDS011;54534;43.612;1.572;2023-04-15T13:20:21;14.73;;;3.13;;
67737;SDS011;54534;43.612;1.572;2023-04-15T13:22:46;64.40;;;6.27;;
67737;SDS011;54534;43.612;1.572;2023-04-15T13:25:11;58.30;;;6.20;;
67737;SDS011;54534;43.612;1.572;2023-04-15T13:27:37;35.00;;;6.03;;
67737;SDS011;54534;43.612;1.572;2023-04-15T13:30:03;24.03;;;3.63;;
67737;SDS011;54534;43.612;1.572;2023-04-15T13:32:29;21.50;;;4.03;;
67737;SDS011;54534;43.612;1.572;2023-04-15T13:34:54;31.90;;;3.80;;
67737;SDS011;54534;43.612;1.572;2023-04-15T13:37:24;19.50;;;3.17;;
67737;SDS011;54534;43.612;1.572;2023-04-15T13:39:51;15.37;;;2.63;;
67737;SDS011;54534;43.612;1.572;2023-04-15T13:42:16;13.83;;;2.53;;
67737;SDS011;54534;43.612;1.572;2023-04-15T13:44:41;13.17;;;2.43;;
67737;SDS011;54534;43.612;1.572;2023-04-15T13:47:07;8.77;;;2.87;;
67737;SDS011;54534;43.612;1.572;2023-04-15T13:49:32;15.07;;;2.40;;
67737;SDS011;54534;43.612;1.572;2023-04-15T13:51:57;9.47;;;1.70;;
67737;SDS011;54534;43.612;1.572;2023-04-15T13:54:23;14.60;;;2.37;;
67737;SDS011;54534;43.612;1.572;2023-04-15T13:56:48;10.37;;;2.10;;
67737;SDS011;54534;43.612;1.572;2023-04-15T13:59:14;7.83;;;1.93;;
67737;SDS011;54534;43.612;1.572;2023-04-15T14:01:40;10.73;;;1.97;;
67737;SDS011;54534;43.612;1.572;2023-04-15T14:04:05;5.50;;;1.47;;
67737;SDS011;54534;43.612;1.572;2023-04-15T14:06:30;6.67;;;1.60;;
67737;SDS011;54534;43.612;1.572;2023-04-15T14:08:56;10.80;;;2.00;;
67737;SDS011;54534;43.612;1.572;2023-04-15T14:11:21;7.37;;;2.37;;
67737;SDS011;54534;43.612;1.572;2023-04-15T14:13:47;10.47;;;2.27;;
67737;SDS011;54534;43.612;1.572;2023-04-15T14:16:12;9.90;;;2.07;;
67737;SDS011;54534;43.612;1.572;2023-04-15T14:18:38;13.80;;;2.10;;
67737;SDS011;54534;43.612;1.572;2023-04-15T14:21:04;4.93;;;1.60;;
67737;SDS011;54534;43.612;1.572;2023-04-15T14:23:31;4.33;;;1.30;;
67737;SDS011;54534;43.612;1.572;2023-04-15T14:25:56;5.17;;;1.70;;
67737;SDS011;54534;43.612;1.572;2023-04-15T14:28:22;10.23;;;2.10;;
67737;SDS011;54534;43.612;1.572;2023-04-15T14:30:48;5.60;;;1.80;;
67737;SDS011;54534;43.612;1.572;2023-04-15T14:33:14;15.30;;;2.67;;
67737;SDS011;54534;43.612;1.572;2023-04-15T14:35:39;11.90;;;1.67;;
67737;SDS011;54534;43.612;1.572;2023-04-15T14:38:05;6.73;;;1.60;;
67737;SDS011;54534;43.612;1.572;2023-04-15T14:40:34;11.10;;;1.60;;
67737;SDS011;54534;43.612;1.572;2023-04-15T14:42:59;7.17;;;1.70;;
67737;SDS011;54534;43.612;1.572;2023-04-15T14:45:25;19.60;;;2.03;;
67737;SDS011;54534;43.612;1.572;2023-04-15T14:47:51;6.87;;;2.47;;
67737;SDS011;54534;43.612;1.572;2023-04-15T14:50:17;11.77;;;2.30;;
67737;SDS011;54534;43.612;1.572;2023-04-15T14:52:42;10.00;;;3.03;;
67737;SDS011;54534;43.612;1.572;2023-04-15T14:55:08;9.03;;;1.90;;